Time;durP1;ratioP1;P1;durP2;ratioP2;P2;SDS_P1;SDS_P2;PMS_P1;PMS_P2;Temp;Humidity;BMP_temperature;BMP_pressure;BME280_temperature;BME280_humidity;BME280_pressure;Samples;Min_cycle;Max_cycle;Signal;HPM_P1;HPM_P2
2024/03/19 00:00:21;;;;;;;22.48;17.00;;;9.70;99.90;;;;;;7369563;19;20106;-72
2024/03/19 00:02:49;;;;;;;18.52;15.20;;;9.70;99.90;;;;;;7368574;19;20054;-73
2024/03/19 00:05:20;;;;;;;21.98;15.93;;;9.60;99.90;;;;;;7368813;19;20018;-72
2024/03/19 00:07:49;;;;;;;19.73;15.57;;;9.60;99.90;;;;;;7367438;19;20010;-72
2024/03/19 00:10:20;;;;;;;22.42;15.90;;;9.60;99.90;;;;;;7369596;19;20014;-72
2024/03/19 00:12:49;;;;;;;24.63;17.23;;;9.60;99.90;;;;;;7366737;19;20028;-73
2024/03/19 00:15:18;;;;;;;21.23;15.45;;;9.60;99.90;;;;;;7366890;19;20011;-73
2024/03/19 00:17:47;;;;;;;24.17;16.25;;;9.50;99.90;;;;;;7364118;19;20692;-73
2024/03/19 00:20:16;;;;;;;18.92;15.77;;;9.50;99.90;;;;;;7366259;19;20038;-72
2024/03/19 00:22:46;;;;;;;21.90;16.15;;;9.50;99.90;;;;;;7364574;19;20007;-71
2024/03/19 00:25:15;;;;;;;22.58;15.45;;;9.50;99.90;;;;;;7365096;19;20018;-72
2024/03/19 00:27:44;;;;;;;25.13;17.02;;;9.40;99.90;;;;;;7362946;19;20014;-71
2024/03/19 00:30:13;;;;;;;21.75;16.13;;;9.40;99.90;;;;;;7367620;19;20010;-71
2024/03/19 00:32:42;;;;;;;24.85;18.33;;;9.30;99.90;;;;;;7366178;19;21345;-71
2024/03/19 00:35:11;;;;;;;24.08;18.45;;;9.20;99.90;;;;;;7366454;19;20013;-72
2024/03/19 00:37:42;;;;;;;23.80;18.13;;;9.20;99.90;;;;;;7363995;19;20010;-72
2024/03/19 00:40:12;;;;;;;24.65;18.52;;;9.20;99.90;;;;;;7366503;19;20039;-73
2024/03/19 00:42:43;;;;;;;22.67;18.42;;;9.10;99.90;;;;;;7366205;19;20035;-71
2024/03/19 00:45:14;;;;;;;27.98;18.30;;;9.10;99.90;;;;;;7365782;19;20007;-71
2024/03/19 00:47:43;;;;;;;25.20;17.75;;;9.10;99.90;;;;;;7363812;19;20018;-71
2024/03/19 00:50:12;;;;;;;24.48;17.73;;;9.00;99.90;;;;;;7366451;19;20010;-72
2024/03/19 00:52:42;;;;;;;27.77;18.10;;;9.00;99.90;;;;;;7365702;19;20475;-72
2024/03/19 00:55:12;;;;;;;22.75;17.48;;;9.00;99.90;;;;;;7365648;19;20010;-71
2024/03/19 00:57:41;;;;;;;22.88;18.30;;;8.90;99.90;;;;;;7362887;19;20006;-72
2024/03/19 01:00:14;;;;;;;24.70;18.75;;;8.90;99.90;;;;;;7364777;19;20035;-72
2024/03/19 01:02:43;;;;;;;24.10;18.02;;;8.90;99.90;;;;;;7364419;19;20044;-72
2024/03/19 01:05:13;;;;;;;22.90;17.40;;;8.90;99.90;;;;;;7364283;19;20879;-72
2024/03/19 01:07:42;;;;;;;22.60;17.63;;;8.90;99.90;;;;;;7361916;19;20032;-71
2024/03/19 01:10:12;;;;;;;28.55;19.73;;;8.90;99.90;;;;;;7363401;19;20014;-71
2024/03/19 01:12:43;;;;;;;24.63;18.40;;;8.80;99.90;;;;;;7364431;19;20023;-70
2024/03/19 01:15:14;;;;;;;25.65;18.75;;;8.80;99.90;;;;;;7351382;19;241443;-72
2024/03/19 01:17:43;;;;;;;25.38;18.40;;;8.80;99.90;;;;;;7364294;19;20018;-71
2024/03/19 01:20:12;;;;;;;26.85;18.45;;;8.80;99.90;;;;;;7366418;19;20039;-71
2024/03/19 01:22:43;;;;;;;25.63;18.05;;;8.70;99.90;;;;;;7365752;19;20042;-72
2024/03/19 01:25:12;;;;;;;23.30;17.83;;;8.60;99.90;;;;;;7365442;19;21209;-72
2024/03/19 01:27:41;;;;;;;23.80;17.85;;;8.70;99.90;;;;;;7364189;19;20014;-72
2024/03/19 01:30:16;;;;;;;26.58;19.08;;;8.60;99.90;;;;;;7365796;19;20015;-71
2024/03/19 01:32:45;;;;;;;27.00;17.77;;;8.60;99.90;;;;;;7366614;19;20018;-72
2024/03/19 01:35:14;;;;;;;24.63;19.42;;;8.50;99.90;;;;;;7367012;19;20604;-72
2024/03/19 01:37:42;;;;;;;22.42;18.15;;;8.50;99.90;;;;;;7362870;19;20376;-72
2024/03/19 01:40:13;;;;;;;23.88;18.70;;;8.40;99.90;;;;;;7365521;19;20011;-71
2024/03/19 01:42:42;;;;;;;23.52;18.55;;;8.40;99.90;;;;;;7367352;19;20363;-73
2024/03/19 01:45:16;;;;;;;24.63;18.67;;;8.40;99.90;;;;;;7366520;19;20010;-72
2024/03/19 01:47:45;;;;;;;25.17;19.20;;;8.30;99.90;;;;;;7363291;19;20017;-72
2024/03/19 01:50:14;;;;;;;26.45;19.00;;;8.40;99.90;;;;;;7366080;19;20581;-72
2024/03/19 01:52:46;;;;;;;28.77;21.27;;;8.40;99.90;;;;;;7365551;19;20014;-70
2024/03/19 01:55:15;;;;;;;30.48;20.83;;;8.50;99.90;;;;;;7367218;19;20602;-72
2024/03/19 01:57:46;;;;;;;33.80;22.58;;;8.50;99.90;;;;;;7362201;19;20015;-72
2024/03/19 02:00:18;;;;;;;31.90;21.92;;;8.50;99.90;;;;;;7366521;19;20014;-72
2024/03/19 02:02:47;;;;;;;36.05;21.67;;;8.40;99.90;;;;;;7365224;19;20086;-72
2024/03/19 02:05:16;;;;;;;33.53;21.58;;;8.40;99.90;;;;;;7365363;19;20018;-71
2024/03/19 02:07:45;;;;;;;31.95;22.45;;;8.40;99.90;;;;;;7362790;19;20006;-71
2024/03/19 02:10:14;;;;;;;36.60;23.77;;;8.40;99.90;;;;;;7365740;19;20040;-71
2024/03/19 02:12:43;;;;;;;37.42;23.52;;;8.40;99.90;;;;;;7364956;19;20020;-72
2024/03/19 02:15:12;;;;;;;35.05;24.00;;;8.40;99.90;;;;;;7360659;19;20112;-70
2024/03/19 02:17:44;;;;;;;33.95;23.58;;;8.40;99.90;;;;;;7363361;19;20023;-72
2024/03/19 02:20:15;;;;;;;35.83;22.83;;;8.40;99.90;;;;;;7365605;19;20039;-71
2024/03/19 02:22:47;;;;;;;37.75;23.13;;;8.40;99.90;;;;;;7365460;19;20011;-71
2024/03/19 02:25:16;;;;;;;34.70;23.13;;;8.30;99.90;;;;;;7365692;19;20014;-71
2024/03/19 02:27:46;;;;;;;37.33;23.90;;;8.30;99.90;;;;;;7365348;19;20010;-71
2024/03/19 02:30:15;;;;;;;36.38;23.77;;;8.30;99.90;;;;;;7366644;19;20758;-72
2024/03/19 02:32:44;;;;;;;36.05;23.50;;;8.30;99.90;;;;;;7365390;19;20021;-71
2024/03/19 02:35:13;;;;;;;34.35;23.60;;;8.30;99.90;;;;;;7365470;19;20042;-72
2024/03/19 02:37:42;;;;;;;32.33;22.63;;;8.20;99.90;;;;;;7362832;19;20969;-72
2024/03/19 02:40:14;;;;;;;36.40;22.23;;;8.20;99.90;;;;;;7363478;19;20524;-71
2024/03/19 02:42:42;;;;;;;34.28;22.70;;;8.20;99.90;;;;;;7364936;19;20103;-72
2024/03/19 02:45:12;;;;;;;35.67;22.83;;;8.20;99.90;;;;;;7364883;19;20021;-71
2024/03/19 02:47:41;;;;;;;37.92;24.30;;;8.30;99.90;;;;;;7361712;19;20014;-72
2024/03/19 02:50:10;;;;;;;35.88;23.52;;;8.30;99.90;;;;;;7369990;19;20017;-71
2024/03/19 02:52:39;;;;;;;44.50;23.85;;;8.40;99.90;;;;;;7373057;19;20411;-71
2024/03/19 02:55:09;;;;;;;38.75;24.75;;;8.30;99.90;;;;;;7371567;19;20010;-71
2024/03/19 02:57:41;;;;;;;91.18;29.58;;;8.30;99.90;;;;;;7369108;19;20010;-72
2024/03/19 03:00:12;;;;;;;63.00;26.45;;;8.20;99.90;;;;;;7370185;19;20820;-72
2024/03/19 03:02:41;;;;;;;94.05;26.98;;;8.20;99.90;;;;;;7371573;19;20017;-71
2024/03/19 03:05:11;;;;;;;125.50;27.85;;;8.20;99.90;;;;;;7371592;19;20036;-71
2024/03/19 03:07:39;;;;;;;111.00;28.42;;;8.20;99.90;;;;;;7368324;19;20014;-72
2024/03/19 03:10:09;;;;;;;165.85;31.15;;;8.20;99.90;;;;;;7372556;19;20522;-72
2024/03/19 03:12:41;;;;;;;164.32;31.52;;;8.20;99.90;;;;;;7371156;19;20029;-72
2024/03/19 03:15:10;;;;;;;229.63;36.17;;;8.20;99.90;;;;;;7370016;19;20018;-71
2024/03/19 03:17:39;;;;;;;190.65;34.25;;;8.20;99.90;;;;;;7369593;19;21043;-72
2024/03/19 03:20:11;;;;;;;308.65;37.20;;;8.20;99.90;;;;;;7371865;19;20015;-72
2024/03/19 03:22:40;;;;;;;179.15;32.65;;;8.20;99.90;;;;;;7371606;19;20015;-71
2024/03/19 03:25:11;;;;;;;209.32;34.67;;;8.10;99.90;;;;;;7371862;19;20014;-72
2024/03/19 03:27:43;;;;;;;172.80;31.25;;;8.10;99.90;;;;;;7368755;19;20014;-71
2024/03/19 03:30:13;;;;;;;144.70;28.20;;;8.10;99.90;;;;;;7371519;19;20019;-72
2024/03/19 03:32:44;;;;;;;273.77;35.47;;;8.00;99.90;;;;;;7373383;19;20011;-72
2024/03/19 03:35:13;;;;;;;152.25;29.65;;;8.00;99.90;;;;;;7372505;19;20003;-71
2024/03/19 03:37:40;;;;;;;166.77;32.53;;;8.00;99.90;;;;;;7370131;19;20006;-72
2024/03/19 03:40:14;;;;;;;137.70;28.88;;;7.90;99.90;;;;;;7371954;19;20394;-72
2024/03/19 03:42:46;;;;;;;121.90;28.77;;;7.90;99.90;;;;;;7367931;19;20014;-72
2024/03/19 03:45:16;;;;;;;267.88;42.10;;;7.80;99.90;;;;;;7369028;19;20010;-71
2024/03/19 03:47:45;;;;;;;179.27;36.25;;;7.70;99.90;;;;;;7368261;19;20745;-72
2024/03/19 03:50:15;;;;;;;80.70;25.80;;;7.70;99.90;;;;;;7373038;19;20011;-72
2024/03/19 03:52:45;;;;;;;46.45;24.25;;;7.60;99.90;;;;;;7369316;19;20026;-72
2024/03/19 03:55:14;;;;;;;65.65;25.42;;;7.70;99.90;;;;;;7371293;19;20003;-72
2024/03/19 03:57:46;;;;;;;46.67;23.13;;;7.60;99.90;;;;;;7369647;19;20007;-72
2024/03/19 04:00:18;;;;;;;63.03;24.83;;;7.60;99.90;;;;;;7369290;19;20023;-72
2024/03/19 04:02:48;;;;;;;53.40;24.92;;;7.60;99.90;;;;;;7368974;19;20474;-71
2024/03/19 04:05:17;;;;;;;42.45;22.98;;;7.50;99.90;;;;;;7369600;19;20716;-72
2024/03/19 04:07:47;;;;;;;38.83;23.75;;;7.50;99.90;;;;;;7367817;19;20011;-71
2024/03/19 04:10:18;;;;;;;49.53;24.20;;;7.50;99.90;;;;;;7370482;19;20086;-72
2024/03/19 04:12:50;;;;;;;36.65;23.88;;;7.50;99.90;;;;;;7369733;19;20002;-73
2024/03/19 04:15:19;;;;;;;50.80;22.88;;;7.40;99.90;;;;;;7369632;19;20367;-72
2024/03/19 04:17:48;;;;;;;46.78;23.25;;;7.50;99.90;;;;;;7367489;19;20953;-70
2024/03/19 04:20:20;;;;;;;40.65;24.35;;;7.40;99.90;;;;;;7369305;19;20111;-72
2024/03/19 04:22:49;;;;;;;77.28;25.25;;;7.30;99.90;;;;;;7370207;19;20036;-71
2024/03/19 04:25:18;;;;;;;62.30;23.50;;;7.40;99.90;;;;;;7368987;19;20041;-72
2024/03/19 04:27:49;;;;;;;65.78;24.33;;;7.30;99.90;;;;;;7366105;19;20010;-71
2024/03/19 04:30:19;;;;;;;42.60;23.83;;;7.30;99.90;;;;;;7369172;19;20018;-71
2024/03/19 04:32:48;;;;;;;168.85;30.95;;;7.30;99.90;;;;;;7369069;19;20426;-72
2024/03/19 04:35:17;;;;;;;49.65;21.48;;;7.20;99.90;;;;;;7369347;19;20027;-73
2024/03/19 04:37:46;;;;;;;56.08;21.20;;;7.30;99.90;;;;;;7366695;19;20010;-72
2024/03/19 04:40:16;;;;;;;75.00;27.13;;;7.20;99.90;;;;;;7372305;19;20034;-73
2024/03/19 04:42:45;;;;;;;86.95;25.88;;;7.30;99.90;;;;;;7366621;19;20015;-71
2024/03/19 04:45:17;;;;;;;63.08;24.48;;;7.30;99.90;;;;;;7371060;19;20015;-72
2024/03/19 04:47:45;;;;;;;115.85;29.52;;;7.50;99.90;;;;;;7364052;19;20291;-71
2024/03/19 04:50:14;;;;;;;75.07;24.45;;;7.40;99.90;;;;;;7368871;19;20390;-72
2024/03/19 04:52:43;;;;;;;66.70;22.65;;;7.40;99.90;;;;;;7369712;19;20006;-72
2024/03/19 04:55:13;;;;;;;87.18;25.98;;;7.50;99.90;;;;;;7370562;19;20022;-71
2024/03/19 04:57:42;;;;;;;111.43;26.45;;;7.40;99.90;;;;;;7366446;19;20010;-71
2024/03/19 05:00:18;;;;;;;148.40;29.58;;;7.40;99.90;;;;;;7368492;19;20357;-71
2024/03/19 05:02:48;;;;;;;132.35;28.40;;;7.50;99.90;;;;;;7371930;19;20017;-71
2024/03/19 05:05:16;;;;;;;102.40;26.13;;;7.50;99.90;;;;;;7368040;19;20014;-71
2024/03/19 05:07:45;;;;;;;174.77;30.30;;;7.50;99.90;;;;;;7368204;19;20018;-72
2024/03/19 05:10:15;;;;;;;124.07;27.92;;;7.50;99.90;;;;;;7369885;19;20038;-71
2024/03/19 05:12:44;;;;;;;136.38;28.75;;;7.50;99.90;;;;;;7363249;19;20006;-72
2024/03/19 05:15:13;;;;;;;160.32;30.02;;;7.50;99.90;;;;;;7368231;19;20813;-71
2024/03/19 05:17:45;;;;;;;175.70;28.90;;;7.60;99.90;;;;;;7369711;19;20010;-71
2024/03/19 05:20:14;;;;;;;223.57;35.03;;;7.50;99.90;;;;;;7378938;19;20485;-73
2024/03/19 05:22:44;;;;;;;111.93;27.58;;;7.50;99.90;;;;;;7377703;19;20003;-71
2024/03/19 05:25:13;;;;;;;321.27;45.72;;;7.50;99.90;;;;;;7378502;19;20010;-72
2024/03/19 05:27:43;;;;;;;97.55;25.38;;;7.50;99.90;;;;;;7375979;19;20006;-72
2024/03/19 05:30:13;;;;;;;83.22;23.08;;;7.50;99.90;;;;;;7376942;19;20038;-72
2024/03/19 05:32:45;;;;;;;78.28;22.42;;;7.40;99.90;;;;;;7377267;19;20049;-72
2024/03/19 05:35:14;;;;;;;87.60;23.75;;;7.40;99.90;;;;;;7378265;19;20006;-71
2024/03/19 05:37:43;;;;;;;44.55;20.50;;;7.40;99.90;;;;;;7382795;19;20014;-71
2024/03/19 05:40:13;;;;;;;45.97;22.17;;;7.40;99.90;;;;;;7375809;19;20006;-72
2024/03/19 05:42:44;;;;;;;47.20;21.85;;;7.40;99.90;;;;;;7375596;19;20432;-72
2024/03/19 05:45:16;;;;;;;127.55;26.45;;;7.50;99.90;;;;;;7377005;19;20015;-72
2024/03/19 05:47:48;;;;;;;50.05;21.10;;;7.40;99.90;;;;;;7377124;19;20450;-71
2024/03/19 05:50:17;;;;;;;60.17;23.33;;;7.40;99.90;;;;;;7377647;19;20006;-72
2024/03/19 05:52:46;;;;;;;66.18;23.80;;;7.50;99.90;;;;;;7378042;19;19998;-73
2024/03/19 05:55:15;;;;;;;59.50;23.63;;;7.50;99.90;;;;;;7376727;19;20014;-71
2024/03/19 05:57:44;;;;;;;73.78;22.73;;;7.50;99.90;;;;;;7376914;19;20006;-73
2024/03/19 06:00:15;;;;;;;68.30;24.60;;;7.60;99.90;;;;;;7378254;19;20013;-71
2024/03/19 06:02:44;;;;;;;70.65;23.85;;;7.50;99.90;;;;;;7377544;19;20372;-71
2024/03/19 06:05:16;;;;;;;53.92;22.27;;;7.60;99.90;;;;;;7377827;19;20494;-72
2024/03/19 06:07:45;;;;;;;48.40;21.77;;;7.50;99.90;;;;;;7377721;19;20010;-70
2024/03/19 06:10:14;;;;;;;53.88;21.50;;;7.70;99.90;;;;;;7377976;19;20021;-70
2024/03/19 06:12:42;;;;;;;56.47;22.17;;;7.80;99.90;;;;;;7378849;19;20010;-70
2024/03/19 06:15:13;;;;;;;58.60;23.25;;;7.80;99.90;;;;;;7376877;19;20358;-71
2024/03/19 06:17:42;;;;;;;71.82;26.15;;;7.80;99.90;;;;;;7377571;19;20332;-71
2024/03/19 06:20:18;;;;;;;96.68;31.55;;;7.80;99.90;;;;;;7378140;19;20006;-71
2024/03/19 06:22:49;;;;;;;118.28;34.80;;;7.80;99.90;;;;;;7378915;19;19999;-72
2024/03/19 06:25:18;;;;;;;92.50;32.28;;;7.80;99.90;;;;;;7383916;19;20036;-71
2024/03/19 06:27:48;;;;;;;51.22;23.50;;;7.80;99.90;;;;;;7383067;19;20012;-71
2024/03/19 06:30:17;;;;;;;56.25;21.75;;;7.90;99.90;;;;;;7383582;19;20031;-71
2024/03/19 06:32:46;;;;;;;58.63;20.30;;;7.70;99.90;;;;;;7383605;19;20002;-71
2024/03/19 06:35:15;;;;;;;57.40;19.55;;;7.80;99.90;;;;;;7383949;19;20010;-71
2024/03/19 06:37:44;;;;;;;41.55;18.00;;;7.70;99.90;;;;;;7385108;19;20545;-71
2024/03/19 06:40:17;;;;;;;64.30;18.70;;;7.90;99.90;;;;;;7385193;19;20007;-71
2024/03/19 06:42:46;;;;;;;41.10;18.20;;;7.70;99.90;;;;;;7384952;19;20015;-70
2024/03/19 06:45:15;;;;;;;48.95;19.05;;;7.80;99.90;;;;;;7383404;19;20010;-71
2024/03/19 06:47:45;;;;;;;29.27;18.45;;;8.00;99.90;;;;;;7382618;19;20635;-71
2024/03/19 06:50:15;;;;;;;38.80;19.45;;;7.90;99.90;;;;;;7386401;19;20471;-71
2024/03/19 06:52:45;;;;;;;37.05;18.55;;;7.90;99.90;;;;;;7382914;19;20024;-71
2024/03/19 06:55:19;;;;;;;24.70;17.88;;;8.20;99.90;;;;;;7385018;19;20451;-71
2024/03/19 06:57:48;;;;;;;23.52;17.52;;;8.20;99.90;;;;;;7382432;19;20017;-71
2024/03/19 07:00:19;;;;;;;23.52;18.50;;;8.10;99.90;;;;;;7383740;19;20014;-71
2024/03/19 07:02:49;;;;;;;27.67;19.17;;;8.40;99.90;;;;;;7384239;19;20342;-71
2024/03/19 07:05:18;;;;;;;28.00;19.85;;;8.40;99.90;;;;;;7382966;19;20117;-71
2024/03/19 07:07:47;;;;;;;35.65;25.45;;;8.20;99.90;;;;;;7382098;19;20010;-72
2024/03/19 07:10:19;;;;;;;32.60;22.00;;;8.40;99.90;;;;;;7385756;19;20010;-71
2024/03/19 07:12:48;;;;;;;30.10;21.17;;;8.50;99.90;;;;;;7381330;19;20027;-69
2024/03/19 07:15:18;;;;;;;32.92;20.75;;;8.70;99.90;;;;;;7382595;19;20362;-71
2024/03/19 07:17:49;;;;;;;28.17;19.17;;;8.90;99.90;;;;;;7381862;19;20010;-70
2024/03/19 07:20:19;;;;;;;28.17;19.23;;;8.70;99.90;;;;;;7379309;19;20032;-70
2024/03/19 07:22:49;;;;;;;29.20;20.35;;;8.80;99.90;;;;;;7378555;19;20026;-70
2024/03/19 07:25:21;;;;;;;26.15;18.30;;;9.10;99.90;;;;;;7373953;19;20030;-70
2024/03/19 07:27:51;;;;;;;24.92;17.42;;;9.10;99.90;;;;;;7377059;19;20003;-70
2024/03/19 07:30:22;;;;;;;24.02;18.98;;;9.40;99.90;;;;;;7380920;19;20003;-69
2024/03/19 07:32:51;;;;;;;23.02;17.08;;;9.90;99.90;;;;;;7379619;19;20386;-69
2024/03/19 07:35:19;;;;;;;21.85;16.88;;;10.20;85.00;;;;;;7381010;19;20014;-70
2024/03/19 07:37:49;;;;;;;19.23;16.33;;;10.40;53.10;;;;;;7384231;19;20022;-70
2024/03/19 07:40:21;;;;;;;20.00;14.55;;;9.90;18.10;;;;;;7383065;19;20002;-70
2024/03/19 07:42:52;;;;;;;16.17;13.68;;;10.00;16.70;;;;;;7376334;19;20010;-70
2024/03/19 07:45:21;;;;;;;21.05;15.32;;;10.10;7.30;;;;;;7379988;19;20031;-70
2024/03/19 07:47:50;;;;;;;21.38;15.80;;;10.40;1.00;;;;;;7377721;19;20010;-71
2024/03/19 07:50:23;;;;;;;17.42;14.48;;;10.70;1.00;;;;;;7381823;19;20030;-72
2024/03/19 07:52:52;;;;;;;20.55;14.23;;;10.60;1.00;;;;;;7377885;19;20064;-70
2024/03/19 07:55:23;;;;;;;18.52;13.00;;;10.80;1.00;;;;;;7379106;19;20003;-70
2024/03/19 07:57:52;;;;;;;18.88;13.15;;;10.80;1.00;;;;;;7380451;19;20010;-70
2024/03/19 08:00:21;;;;;;;14.35;11.65;;;10.90;1.00;;;;;;7379518;19;20032;-70
2024/03/19 08:02:50;;;;;;;19.02;11.85;;;11.00;1.00;;;;;;7379050;19;20041;-70
2024/03/19 08:05:19;;;;;;;15.10;11.95;;;10.80;1.00;;;;;;7381460;19;20014;-70
2024/03/19 08:07:48;;;;;;;17.08;11.82;;;11.10;1.00;;;;;;7378757;19;20013;-70
2024/03/19 08:10:18;;;;;;;16.08;11.85;;;11.10;1.00;;;;;;7381258;19;19998;-69
2024/03/19 08:12:49;;;;;;;17.85;11.43;;;11.20;1.00;;;;;;7380778;19;20006;-70
2024/03/19 08:15:18;;;;;;;14.10;11.25;;;11.20;1.00;;;;;;7379016;19;20017;-70
2024/03/19 08:17:47;;;;;;;12.50;10.55;;;11.00;1.00;;;;;;7379129;19;20135;-70
2024/03/19 08:20:17;;;;;;;11.82;10.20;;;10.80;1.00;;;;;;7378225;19;20010;-70
2024/03/19 08:22:46;;;;;;;12.27;9.98;;;11.00;1.00;;;;;;7379207;19;20043;-70
2024/03/19 08:25:16;;;;;;;19.95;10.45;;;11.30;1.00;;;;;;7377780;19;20071;-70
2024/03/19 08:27:45;;;;;;;13.55;10.70;;;11.20;1.00;;;;;;7376114;19;20010;-70
2024/03/19 08:30:17;;;;;;;11.27;9.23;;;11.20;1.00;;;;;;7376447;19;19999;-71
2024/03/19 08:32:46;;;;;;;12.82;9.20;;;11.50;1.00;;;;;;7377874;19;20006;-71
2024/03/19 08:35:15;;;;;;;9.95;8.95;;;11.50;1.00;;;;;;7378847;19;20110;-72
2024/03/19 08:37:46;;;;;;;11.32;9.23;;;11.70;1.00;;;;;;7377637;19;20010;-70
2024/03/19 08:40:16;;;;;;;13.00;8.50;;;11.50;1.00;;;;;;7377878;19;20078;-70
2024/03/19 08:42:44;;;;;;;10.57;8.40;;;11.80;1.00;;;;;;7377685;19;20034;-70
2024/03/19 08:45:23;;;;;;;12.13;8.02;;;11.80;1.00;;;;;;7378559;19;20002;-71
2024/03/19 08:47:53;;;;;;;9.80;8.30;;;11.70;1.00;;;;;;7378994;19;20006;-71
2024/03/19 08:50:22;;;;;;;11.70;8.15;;;11.70;1.00;;;;;;7378357;19;20006;-70
2024/03/19 08:52:51;;;;;;;11.63;8.35;;;11.50;1.00;;;;;;7378760;19;20038;-70
2024/03/19 08:55:20;;;;;;;11.57;8.07;;;11.60;1.00;;;;;;7377136;19;20017;-70
2024/03/19 08:57:49;;;;;;;10.63;8.15;;;11.80;1.00;;;;;;7377142;19;20005;-70
2024/03/19 09:00:21;;;;;;;11.43;7.93;;;11.80;1.00;;;;;;7378632;19;20011;-70
2024/03/19 09:02:50;;;;;;;10.48;8.55;;;12.20;1.00;;;;;;7379236;19;20153;-70
2024/03/19 09:05:19;;;;;;;8.80;7.82;;;12.10;1.00;;;;;;7377505;19;20374;-70
2024/03/19 09:07:48;;;;;;;9.77;7.55;;;12.20;1.00;;;;;;7376972;19;20443;-70
2024/03/19 09:10:17;;;;;;;9.32;7.30;;;12.10;1.00;;;;;;7378404;19;20487;-71
2024/03/19 09:12:46;;;;;;;10.07;7.80;;;12.00;1.00;;;;;;7378483;19;20120;-70
2024/03/19 09:15:15;;;;;;;12.88;8.30;;;12.00;1.00;;;;;;7376786;19;20014;-71
2024/03/19 09:17:47;;;;;;;12.85;7.88;;;12.40;1.00;;;;;;7377748;19;20144;-71
2024/03/19 09:20:16;;;;;;;14.70;8.73;;;12.10;1.00;;;;;;7377961;19;20039;-71
2024/03/19 09:22:45;;;;;;;10.20;7.78;;;12.30;1.00;;;;;;7378742;19;20535;-71
2024/03/19 09:25:14;;;;;;;9.60;7.82;;;12.70;1.00;;;;;;7377930;19;20221;-70
2024/03/19 09:27:43;;;;;;;8.40;7.60;;;12.70;1.00;;;;;;7377276;19;20014;-71
2024/03/19 09:30:13;;;;;;;11.15;7.80;;;12.90;1.00;;;;;;7377923;19;20010;-71
2024/03/19 09:32:42;;;;;;;9.80;8.45;;;13.10;1.00;;;;;;7376054;19;20027;-71
2024/03/19 09:35:13;;;;;;;9.60;8.45;;;13.20;1.00;;;;;;7379364;19;20495;-71
2024/03/19 09:37:43;;;;;;;11.27;8.20;;;13.30;1.00;;;;;;7375237;19;20002;-70
2024/03/19 09:40:13;;;;;;;19.27;9.00;;;13.30;1.00;;;;;;7377778;19;20009;-70
2024/03/19 09:42:42;;;;;;;11.50;8.60;;;13.30;1.00;;;;;;7376720;19;20017;-70
2024/03/19 09:45:27;;;;;;;11.70;9.32;;;13.00;1.00;;;;;;7378341;19;20046;-69
2024/03/19 09:47:58;;;;;;;12.35;9.27;;;13.10;1.00;;;;;;6865598;19;2004026;-70
2024/03/19 09:50:29;;;;;;;11.80;9.35;;;13.10;1.00;;;;;;7376490;19;20014;-70
2024/03/19 09:52:58;;;;;;;12.88;9.50;;;13.10;1.00;;;;;;7377935;19;20007;-70
2024/03/19 09:55:29;;;;;;;14.63;9.38;;;12.90;1.00;;;;;;7375400;19;20007;-70
2024/03/19 09:57:58;;;;;;;11.75;9.63;;;13.10;1.00;;;;;;7377699;19;20478;-70
2024/03/19 10:00:28;;;;;;;11.02;9.73;;;13.30;1.00;;;;;;7376592;19;20095;-70
2024/03/19 10:02:58;;;;;;;11.32;9.07;;;13.50;1.00;;;;;;7374786;19;20392;-70
2024/03/19 10:05:29;;;;;;;10.98;9.20;;;13.60;1.00;;;;;;7375607;19;20010;-70
2024/03/19 10:07:58;;;;;;;14.00;8.85;;;13.60;1.00;;;;;;7376638;19;20007;-71
2024/03/19 10:10:29;;;;;;;12.25;8.70;;;13.70;1.00;;;;;;7375456;19;20010;-70
2024/03/19 10:12:57;;;;;;;11.02;8.82;;;13.90;1.00;;;;;;7378017;19;20352;-70
2024/03/19 10:15:28;;;;;;;10.63;7.97;;;13.90;1.00;;;;;;7375418;19;20361;-71
2024/03/19 10:17:58;;;;;;;10.57;8.50;;;13.70;1.00;;;;;;7375657;19;19999;-71
2024/03/19 10:20:32;;;;;;;13.13;9.27;;;13.80;1.00;;;;;;7376308;19;20629;-71
2024/03/19 10:23:03;;;;;;;;;;;14.00;1.00;;;;;;7377255;19;20006;-71
2024/03/19 10:25:32;;;;;;;11.02;8.68;;;13.90;1.00;;;;;;7373676;19;20276;-71
2024/03/19 10:28:01;;;;;;;12.57;8.27;;;14.10;1.00;;;;;;7374226;19;20010;-71
2024/03/19 10:30:31;;;;;;;9.20;7.07;;;13.80;1.00;;;;;;7374576;19;20027;-70
2024/03/19 10:33:03;;;;;;;7.90;6.72;;;14.10;1.00;;;;;;7375769;19;20010;-71
2024/03/19 10:35:35;;;;;;;10.48;7.20;;;14.00;1.00;;;;;;7373961;19;20002;-71
2024/03/19 10:38:06;;;;;;;11.18;7.35;;;14.10;1.00;;;;;;7375451;19;20469;-71
2024/03/19 10:40:33;;;;;;;9.80;7.55;;;14.40;1.00;;;;;;7375112;19;20106;-70
2024/03/19 10:43:03;;;;;;;9.52;7.00;;;14.40;1.00;;;;;;7375843;19;20011;-70
2024/03/19 10:45:33;;;;;;;10.45;6.68;;;14.60;1.00;;;;;;7374803;19;20013;-70
2024/03/19 10:48:03;;;;;;;8.95;6.03;;;14.70;1.00;;;;;;7374898;19;20006;-71
2024/03/19 10:50:35;;;;;;;8.88;6.22;;;14.90;1.00;;;;;;7375282;19;20002;-71
2024/03/19 10:53:08;;;;;;;8.32;5.90;;;15.00;1.00;;;;;;7374497;19;20015;-71
2024/03/19 10:55:38;;;;;;;11.63;5.90;;;14.70;1.00;;;;;;7373622;19;20011;-71
2024/03/19 10:58:11;;;;;;;7.38;5.72;;;14.80;1.00;;;;;;7373352;19;20024;-71
2024/03/19 11:00:43;;;;;;;7.32;5.72;;;14.60;1.00;;;;;;7373922;19;20031;-70
2024/03/19 11:03:15;;;;;;;5.63;5.03;;;14.80;1.00;;;;;;7373474;19;20019;-70
2024/03/19 11:05:50;;;;;;;6.45;4.60;;;15.00;1.00;;;;;;7373055;19;20006;-71
2024/03/19 11:08:19;;;;;;;9.30;5.45;;;14.90;1.00;;;;;;7375487;19;20003;-70
2024/03/19 11:10:49;;;;;;;5.90;5.05;;;14.80;1.00;;;;;;7378035;19;20002;-71
2024/03/19 11:13:21;;;;;;;6.85;4.82;;;14.70;1.00;;;;;;7382117;19;20324;-71
2024/03/19 11:15:52;;;;;;;5.32;4.15;;;14.80;1.00;;;;;;7379789;19;20010;-71
2024/03/19 11:18:22;;;;;;;4.75;4.35;;;14.70;1.00;;;;;;7380479;19;20076;-70
2024/03/19 11:20:56;;;;;;;6.40;4.32;;;14.30;1.00;;;;;;7381246;19;20469;-70
2024/03/19 11:23:27;;;;;;;5.13;4.30;;;14.40;1.00;;;;;;7378886;19;20030;-71
2024/03/19 11:25:57;;;;;;;6.82;4.53;;;14.90;1.00;;;;;;7378876;19;20021;-70
2024/03/19 11:28:27;;;;;;;8.40;4.07;;;14.60;1.00;;;;;;7380335;19;20014;-71
2024/03/19 11:30:58;;;;;;;7.55;4.40;;;14.50;1.00;;;;;;7380051;19;20073;-71
2024/03/19 11:33:28;;;;;;;4.78;3.95;;;15.00;1.00;;;;;;7379855;19;20007;-70
2024/03/19 11:35:59;;;;;;;8.88;4.28;;;14.80;1.00;;;;;;7378459;19;20021;-70
2024/03/19 11:38:29;;;;;;;6.15;4.15;;;14.90;1.00;;;;;;7380984;19;20003;-71
2024/03/19 11:40:58;;;;;;;5.82;4.28;;;14.80;1.00;;;;;;7380473;19;20102;-70
2024/03/19 11:43:28;;;;;;;8.55;4.20;;;14.60;1.00;;;;;;7383355;19;20031;-71
2024/03/19 11:45:57;;;;;;;7.20;4.28;;;15.30;1.00;;;;;;7379030;19;20022;-70
2024/03/19 11:48:28;;;;;;;3.83;3.42;;;15.60;1.00;;;;;;7381459;19;20630;-71
2024/03/19 11:50:59;;;;;;;9.13;3.83;;;16.00;1.00;;;;;;7381495;19;20013;-71
2024/03/19 11:53:26;;;;;;;4.50;3.58;;;16.20;1.00;;;;;;7380273;19;20124;-71
2024/03/19 11:55:56;;;;;;;4.05;3.33;;;16.40;1.00;;;;;;7377613;19;20022;-70
2024/03/19 11:58:28;;;;;;;4.07;3.17;;;16.50;1.00;;;;;;7380599;19;20010;-70
2024/03/19 12:00:57;;;;;;;4.65;3.75;;;16.70;1.00;;;;;;7379641;19;20362;-71
2024/03/19 12:03:26;;;;;;;5.25;3.80;;;16.70;1.00;;;;;;7378478;19;20376;-71
2024/03/19 12:05:55;;;;;;;5.15;3.60;;;15.90;1.00;;;;;;7377561;19;20034;-70
2024/03/19 12:08:26;;;;;;;4.72;3.50;;;15.70;1.00;;;;;;7378479;19;20051;-70
2024/03/19 12:11:04;;;;;;;3.20;2.90;;;15.70;1.00;;;;;;7380327;19;20045;-72
2024/03/19 12:13:34;;;;;;;4.50;3.45;;;15.70;1.00;;;;;;7378806;19;20047;-71
2024/03/19 12:16:02;;;;;;;4.38;3.15;;;15.60;1.00;;;;;;7378611;19;20011;-70
2024/03/19 12:18:33;;;;;;;3.25;2.92;;;15.10;1.00;;;;;;7380728;19;20459;-70
2024/03/19 12:21:05;;;;;;;4.43;3.13;;;15.50;1.00;;;;;;7379424;19;20015;-71
2024/03/19 12:23:38;;;;;;;3.53;3.15;;;15.90;1.00;;;;;;7379350;19;20009;-71
2024/03/19 12:26:07;;;;;;;3.78;2.97;;;16.30;1.00;;;;;;7377752;19;20024;-71
2024/03/19 12:28:39;;;;;;;6.97;3.00;;;15.60;1.00;;;;;;7379391;19;20006;-71
2024/03/19 12:31:21;;;;;;;4.97;3.17;;;15.90;1.00;;;;;;7380256;19;20049;-71
2024/03/19 12:33:50;;;;;;;2.60;2.40;;;16.30;1.00;;;;;;6866995;19;2004839;-71
2024/03/19 12:36:20;;;;;;;3.45;2.55;;;16.80;1.00;;;;;;7377897;19;19995;-70
2024/03/19 12:38:53;;;;;;;2.65;2.40;;;16.00;1.00;;;;;;7377734;19;20396;-70
2024/03/19 12:41:22;;;;;;;2.67;2.28;;;16.50;1.00;;;;;;7378893;19;19998;-70
2024/03/19 12:43:51;;;;;;;3.60;2.47;;;17.20;1.00;;;;;;7378661;19;20076;-70
2024/03/19 12:46:20;;;;;;;5.00;2.50;;;16.80;1.00;;;;;;7379790;19;20097;-70
2024/03/19 12:48:49;;;;;;;3.17;2.10;;;16.50;1.00;;;;;;7380371;19;20413;-70
2024/03/19 12:51:18;;;;;;;3.28;2.20;;;16.10;1.00;;;;;;7380301;19;20014;-70
2024/03/19 12:53:47;;;;;;;3.30;2.20;;;15.80;1.00;;;;;;7378605;19;20014;-70